Time;durP1;ratioP1;P1;durP2;ratioP2;P2;SDS_P1;SDS_P2;PMS_P1;PMS_P2;Temp;Humidity;BMP_temperature;BMP_pressure;BME280_temperature;BME280_humidity;BME280_pressure;Samples;Min_cycle;Max_cycle;Signal;HPM_P1;HPM_P2
2022/08/27 00:01:47;;;;;;;26.33;20.93;;;;;;;19.44;100.00;156361.31;5070779;28;20430;-80
2022/08/27 00:04:13;;;;;;;25.73;21.93;;;;;;;19.43;100.00;156358.69;5069780;28;20442;-80
2022/08/27 00:06:40;;;;;;;24.40;21.80;;;;;;;19.41;100.00;156353.47;5071982;28;20549;-80
2022/08/27 00:09:07;;;;;;;28.27;21.30;;;;;;;19.40;100.00;156350.91;5070084;28;20525;-80
2022/08/27 00:11:34;;;;;;;25.20;22.53;;;;;;;19.41;100.00;156353.47;5072235;28;20452;-80
2022/08/27 00:14:01;;;;;;;26.90;23.53;;;;;;;19.42;100.00;156354.78;5070495;28;20822;-80
2022/08/27 00:16:28;;;;;;;25.00;22.20;;;;;;;19.39;100.00;156348.28;5071728;28;20487;-81
2022/08/27 00:18:56;;;;;;;26.30;22.43;;;;;;;19.39;100.00;156348.28;5070397;28;20851;-80
2022/08/27 00:21:25;;;;;;;24.07;21.47;;;;;;;19.39;100.00;156348.28;5070239;28;20796;-80
2022/08/27 00:23:52;;;;;;;24.90;22.30;;;;;;;19.40;100.00;156350.91;5070610;28;21175;-80
2022/08/27 00:26:19;;;;;;;24.70;22.07;;;;;;;19.40;100.00;156349.59;5071868;28;20481;-81
2022/08/27 00:28:47;;;;;;;23.53;21.03;;;;;;;19.41;100.00;156353.47;5074150;28;20438;-81
2022/08/27 00:31:14;;;;;;;24.77;22.27;;;;;;;19.44;100.00;156361.31;5074483;28;20445;-80
2022/08/27 00:33:40;;;;;;;23.07;20.57;;;;;;;19.43;100.00;156358.69;5074230;28;20476;-80
2022/08/27 00:36:09;;;;;;;24.77;21.83;;;;;;;19.41;100.00;156352.16;5075688;28;20529;-81
2022/08/27 00:38:37;;;;;;;24.50;21.73;;;;;;;19.43;100.00;156357.41;5075091;28;20434;-81
2022/08/27 00:41:04;;;;;;;22.43;19.40;;;;;;;19.41;100.00;156353.47;5075612;28;20850;-81
2022/08/27 00:43:45;;;;;;;22.50;20.30;;;;;;;19.40;100.00;156349.59;5074375;28;20446;-81
2022/08/27 00:46:19;;;;;;;22.90;20.53;;;;;;;19.38;100.00;156345.66;5108170;28;20940;-81
2022/08/27 00:48:46;;;;;;;22.63;20.33;;;;;;;19.37;100.00;156341.72;5073973;28;20476;-81
2022/08/27 00:51:14;;;;;;;23.13;20.80;;;;;;;19.37;100.00;156343.06;5075347;28;20442;-81
2022/08/27 00:53:41;;;;;;;23.33;20.40;;;;;;;19.38;100.00;156344.34;5075195;28;20469;-81
2022/08/27 00:56:11;;;;;;;25.10;20.90;;;;;;;19.36;100.00;156340.41;5073457;28;20483;-81
2022/08/27 00:58:41;;;;;;;22.37;19.97;;;;;;;19.31;100.00;156327.38;5074842;28;20428;-81
2022/08/27 01:01:19;;;;;;;24.43;20.40;;;;;;;19.31;100.00;156327.38;5075078;28;20434;-81
2022/08/27 01:03:48;;;;;;;23.73;21.33;;;;;;;19.35;100.00;156337.78;5075041;28;20488;-81
2022/08/27 01:06:17;;;;;;;22.60;20.20;;;;;;;19.34;100.00;156335.19;5074962;28;20448;-81
2022/08/27 01:08:46;;;;;;;22.47;20.07;;;;;;;19.35;100.00;156337.78;5074917;28;20520;-81
2022/08/27 01:11:13;;;;;;;24.03;21.13;;;;;;;19.37;100.00;156341.72;5073659;28;20451;-81
2022/08/27 01:13:42;;;;;;;24.70;19.40;;;;;;;19.35;100.00;156337.78;5074793;28;20465;-81
2022/08/27 01:16:10;;;;;;;22.27;19.90;;;;;;;19.33;100.00;156332.56;5074838;28;20452;-81
2022/08/27 01:18:37;;;;;;;23.13;20.77;;;;;;;19.31;100.00;156326.06;5073217;28;20520;-81
2022/08/27 01:21:10;;;;;;;24.43;21.30;;;;;;;19.29;100.00;156322.16;5074798;28;20445;-81
2022/08/27 01:23:43;;;;;;;23.10;20.80;;;;;;;19.28;100.00;156319.53;5073463;28;20430;-81
2022/08/27 01:26:13;;;;;;;23.63;21.17;;;;;;;19.28;100.00;156318.22;5074510;28;20788;-81
2022/08/27 01:28:41;;;;;;;23.00;20.20;;;;;;;19.28;100.00;156319.53;5072960;28;20459;-81
2022/08/27 01:31:09;;;;;;;23.13;20.67;;;;;;;19.28;100.00;156318.22;5073225;28;20533;-81
2022/08/27 01:33:36;;;;;;;23.33;20.63;;;;;;;19.29;100.00;156320.84;5074622;28;20623;-81
2022/08/27 01:36:03;;;;;;;22.27;19.93;;;;;;;19.27;100.00;156316.91;5074374;28;20595;-81
2022/08/27 01:38:30;;;;;;;23.67;21.10;;;;;;;19.27;100.00;156315.66;5055516;28;20776;-81
2022/08/27 01:40:57;;;;;;;24.00;21.50;;;;;;;19.24;100.00;156309.13;5072802;28;20538;-81
2022/08/27 01:43:25;;;;;;;23.67;20.27;;;;;;;19.24;100.00;156309.13;5074382;28;20414;-81
2022/08/27 01:45:52;;;;;;;23.00;20.70;;;;;;;19.21;100.00;156301.31;5074090;28;20536;-81
2022/08/27 01:48:21;;;;;;;23.60;20.90;;;;;;;19.20;100.00;156297.38;5073041;28;20445;-81
2022/08/27 01:50:48;;;;;;;23.33;20.93;;;;;;;19.15;100.00;156285.66;5073904;28;20525;-81
2022/08/27 01:53:17;;;;;;;25.97;22.30;;;;;;;19.17;100.00;156290.88;5072879;28;20549;-81
2022/08/27 01:55:44;;;;;;;26.30;23.57;;;;;;;19.16;100.00;156286.97;5089444;28;20442;-81
2022/08/27 01:58:11;;;;;;;29.00;22.17;;;;;;;19.14;100.00;156283.03;5072925;28;20532;-81
2022/08/27 02:00:42;;;;;;;24.73;21.40;;;;;;;19.13;100.00;156280.47;5072292;28;21006;-81
2022/08/27 02:03:11;;;;;;;24.70;22.00;;;;;;;19.14;100.00;156283.03;5074090;28;20432;-81
2022/08/27 02:05:39;;;;;;;26.67;22.67;;;;;;;19.14;100.00;156281.78;5073540;28;20901;-81
2022/08/27 02:08:06;;;;;;;23.63;21.13;;;;;;;19.12;100.00;156277.84;5073867;28;20422;-81
2022/08/27 02:10:35;;;;;;;24.93;22.37;;;;;;;19.11;100.00;156273.94;5055498;28;20536;-81
2022/08/27 02:13:02;;;;;;;25.10;22.40;;;;;;;19.12;100.00;156277.84;5072568;28;20476;-81
2022/08/27 02:15:30;;;;;;;25.17;22.40;;;;;;;19.14;100.00;156283.03;5073782;28;20517;-81
2022/08/27 02:17:58;;;;;;;27.00;22.70;;;;;;;19.18;100.00;156293.50;5072636;28;20431;-81
2022/08/27 02:20:25;;;;;;;25.27;22.57;;;;;;;19.23;100.00;156305.19;5071832;28;20484;-81
2022/08/27 02:22:51;;;;;;;25.57;22.60;;;;;;;19.25;100.00;156311.72;5072627;28;20449;-81
2022/08/27 02:25:19;;;;;;;26.20;23.07;;;;;;;19.28;100.00;156318.22;5106132;28;21079;-81
2022/08/27 02:27:46;;;;;;;27.80;24.87;;;;;;;19.27;100.00;156315.66;5072531;28;20450;-81
2022/08/27 02:30:15;;;;;;;27.93;24.10;;;;;;;19.25;100.00;156310.41;5071840;28;20430;-81
2022/08/27 02:32:44;;;;;;;25.00;22.40;;;;;;;19.26;100.00;156313.03;5073920;28;20422;-81
2022/08/27 02:35:12;;;;;;;26.20;21.93;;;;;;;19.25;100.00;156310.41;5071989;28;21024;-82
2022/08/27 02:37:40;;;;;;;24.83;22.23;;;;;;;19.27;100.00;156316.91;5073437;28;20445;-81
2022/08/27 02:40:09;;;;;;;27.63;22.17;;;;;;;19.25;100.00;156311.72;5071659;28;20426;-82
2022/08/27 02:42:36;;;;;;;25.60;22.77;;;;;;;19.26;100.00;156313.03;5072138;28;20452;-81
2022/08/27 02:45:03;;;;;;;25.17;21.10;;;;;;;19.26;100.00;156314.34;5072180;28;20426;-81
2022/08/27 02:47:30;;;;;;;26.80;21.60;;;;;;;19.26;100.00;156313.03;5071827;28;20470;-81
2022/08/27 02:49:57;;;;;;;25.00;22.47;;;;;;;19.27;100.00;156316.91;5071655;28;20854;-82
2022/08/27 02:52:26;;;;;;;26.27;22.30;;;;;;;19.27;100.00;156315.66;5073418;28;20453;-81
2022/08/27 02:54:53;;;;;;;25.33;22.73;;;;;;;19.26;100.00;156313.03;5054802;28;20466;-81
2022/08/27 02:57:19;;;;;;;24.27;21.73;;;;;;;19.25;100.00;156311.72;5072844;28;20816;-82
2022/08/27 02:59:47;;;;;;;26.87;24.00;;;;;;;19.26;100.00;156313.03;5072601;28;20480;-82
2022/08/27 03:02:13;;;;;;;27.07;23.03;;;;;;;19.23;100.00;156306.53;5071661;28;20474;-82
2022/08/27 03:04:40;;;;;;;25.77;23.17;;;;;;;19.24;100.00;156309.13;5053531;28;20463;-82
2022/08/27 03:07:07;;;;;;;25.97;22.70;;;;;;;19.23;100.00;156306.53;5051594;28;20439;-82
2022/08/27 03:09:35;;;;;;;26.70;23.90;;;;;;;19.26;100.00;156314.34;5051119;28;20874;-82
2022/08/27 03:12:04;;;;;;;27.37;21.97;;;;;;;19.26;100.00;156313.03;5065250;28;20449;-82
2022/08/27 03:14:31;;;;;;;25.10;22.53;;;;;;;19.27;100.00;156316.91;5072940;28;20488;-82
2022/08/27 03:18:16;;;;;;;26.50;23.23;;;;;;;19.24;100.00;156307.84;5071399;28;20488;-82
2022/08/27 03:19:46;;;;;;;25.77;22.00;;;;;;;19.21;100.00;156300.00;5072194;28;20425;-82
2022/08/27 03:22:13;;;;;;;26.53;21.90;;;;;;;19.22;100.00;156303.88;5072764;28;20897;-82
2022/08/27 03:24:41;;;;;;;24.67;22.07;;;;;;;19.21;100.00;156301.31;5071267;28;20296;-82
2022/08/27 03:27:08;;;;;;;22.97;20.47;;;;;;;19.22;100.00;156303.88;5071094;28;20442;-82
2022/08/27 03:29:36;;;;;;;23.83;21.30;;;;;;;19.23;100.00;156305.19;5070623;28;20532;-82
2022/08/27 03:32:05;;;;;;;23.73;21.23;;;;;;;19.21;100.00;156301.31;5072291;28;20841;-82
2022/08/27 03:34:32;;;;;;;24.17;21.60;;;;;;;19.21;100.00;156301.31;5070944;28;20519;-82
2022/08/27 03:37:00;;;;;;;24.07;21.70;;;;;;;19.18;100.00;156293.50;5104931;28;20473;-82
2022/08/27 03:39:27;;;;;;;22.83;20.40;;;;;;;19.17;100.00;156289.53;5070916;28;20511;-82
2022/08/27 03:41:55;;;;;;;23.53;21.00;;;;;;;19.16;100.00;156288.28;5070835;28;21103;-82
2022/08/27 03:44:22;;;;;;;23.03;20.30;;;;;;;19.21;100.00;156301.31;5070859;28;20445;-82
2022/08/27 03:46:49;;;;;;;20.43;18.27;;;;;;;19.22;100.00;156303.88;5087162;28;20464;-82
2022/08/27 03:49:16;;;;;;;22.53;19.30;;;;;;;19.18;100.00;156293.50;5070498;28;20492;-82
2022/08/27 03:51:43;;;;;;;22.93;19.23;;;;;;;19.20;100.00;156297.38;5072214;28;20440;-82
2022/08/27 03:54:10;;;;;;;18.80;16.80;;;;;;;19.13;100.00;156280.47;5071741;28;20465;-82
2022/08/27 03:56:38;;;;;;;20.07;18.00;;;;;;;19.07;100.00;156264.81;5071610;28;20496;-82
2022/08/27 03:59:07;;;;;;;18.17;16.10;;;;;;;19.08;100.00;156266.13;5070695;28;20789;-82
2022/08/27 04:01:33;;;;;;;20.27;17.60;;;;;;;19.09;100.00;156270.00;5069456;28;20457;-82
2022/08/27 04:04:00;;;;;;;19.53;16.07;;;;;;;19.11;100.00;156275.25;5071835;28;20495;-82
2022/08/27 04:06:27;;;;;;;18.10;15.80;;;;;;;19.16;100.00;156286.97;5070509;28;20510;-82
2022/08/27 04:08:53;;;;;;;18.40;16.40;;;;;;;19.14;100.00;156281.78;5053912;28;20445;-82
2022/08/27 04:11:20;;;;;;;16.37;14.67;;;;;;;19.06;100.00;156262.19;5070196;28;20541;-82
2022/08/27 04:13:47;;;;;;;16.67;15.03;;;;;;;18.97;100.00;156238.75;5070495;28;20847;-82
2022/08/27 04:16:15;;;;;;;17.53;14.03;;;;;;;18.94;100.00;156230.94;5071842;28;20442;-82
2022/08/27 04:18:42;;;;;;;18.50;15.97;;;;;;;18.92;100.00;156225.72;5070362;28;20932;-82
2022/08/27 04:21:11;;;;;;;15.67;14.07;;;;;;;18.86;100.00;156210.09;5070152;28;20446;-82
2022/08/27 04:23:38;;;;;;;17.60;15.40;;;;;;;18.87;100.00;156212.72;5071717;28;20928;-82
2022/08/27 04:26:06;;;;;;;17.47;15.60;;;;;;;18.81;100.00;156197.06;5070621;28;20504;-83
2022/08/27 04:28:32;;;;;;;21.80;17.10;;;;;;;18.75;100.00;156182.72;5071529;28;20430;-82
2022/08/27 04:30:59;;;;;;;19.87;17.80;;;;;;;18.74;100.00;156180.09;5070076;28;20692;-82
2022/08/27 04:33:27;;;;;;;24.50;21.90;;;;;;;18.72;100.00;156173.59;5070225;28;20445;-82
2022/08/27 04:35:58;;;;;;;25.57;22.60;;;;;;;18.74;100.00;156178.84;5071520;28;20446;-82
2022/08/27 04:38:25;;;;;;;23.77;21.27;;;;;;;18.68;100.00;156163.19;5070247;28;20430;-82
2022/08/27 04:43:44;;;;;;;25.97;23.20;;;;;;;18.68;100.00;156163.19;5034750;28;20445;-82
2022/08/27 04:46:10;;;;;;;26.40;23.60;;;;;;;18.70;100.00;156168.38;5070018;28;20442;-83
2022/08/27 04:48:38;;;;;;;30.77;26.17;;;;;;;18.70;100.00;156169.69;5071341;28;20452;-83
2022/08/27 04:51:05;;;;;;;28.03;24.53;;;;;;;18.67;100.00;156161.88;5069718;28;20442;-83
2022/08/27 04:53:32;;;;;;;33.93;26.53;;;;;;;18.64;100.00;156152.75;5069915;28;20942;-83
2022/08/27 04:55:59;;;;;;;29.80;26.17;;;;;;;18.66;100.00;156159.31;5071241;28;20527;-83
2022/08/27 04:58:26;;;;;;;30.77;27.50;;;;;;;18.67;100.00;156160.56;5070353;28;20430;-83
2022/08/27 05:00:54;;;;;;;30.80;27.70;;;;;;;18.63;100.00;156150.16;5071080;28;20536;-83
2022/08/27 05:03:23;;;;;;;31.63;28.23;;;;;;;18.76;100.00;156184.03;5053339;28;20435;-83
2022/08/27 05:05:53;;;;;;;28.17;24.70;;;;;;;18.75;100.00;156181.41;5049979;28;20492;-83
2022/08/27 05:08:20;;;;;;;31.83;24.33;;;;;;;18.73;100.00;156176.22;5051491;28;20431;-83
2022/08/27 05:10:49;;;;;;;29.20;24.50;;;;;;;18.83;100.00;156203.56;5061428;28;21016;-83
2022/08/27 05:13:17;;;;;;;27.53;24.50;;;;;;;18.89;100.00;156217.91;5074188;28;20793;-83
2022/08/27 05:15:44;;;;;;;31.27;25.50;;;;;;;18.91;100.00;156221.78;5074804;28;20469;-83
2022/08/27 05:18:12;;;;;;;29.47;26.37;;;;;;;18.94;100.00;156230.94;5107197;28;20801;-83
2022/08/27 05:20:43;;;;;;;28.70;25.57;;;;;;;18.89;100.00;156216.59;5073247;28;20964;-83
2022/08/27 05:23:12;;;;;;;30.23;26.90;;;;;;;18.83;100.00;156203.56;5073453;28;20426;-83
2022/08/27 05:25:38;;;;;;;34.17;26.50;;;;;;;18.82;100.00;156199.69;5074755;28;20517;-83
2022/08/27 05:28:05;;;;;;;29.57;26.10;;;;;;;18.84;100.00;156204.88;5073299;28;20465;-83
2022/08/27 05:30:35;;;;;;;29.13;26.00;;;;;;;18.84;100.00;156204.88;5074454;28;20528;-83
2022/08/27 05:33:02;;;;;;;29.13;26.00;;;;;;;18.83;100.00;156203.56;5074680;28;20505;-83
2022/08/27 05:35:30;;;;;;;29.40;25.87;;;;;;;18.81;100.00;156197.06;5073495;28;20458;-83
2022/08/27 05:37:59;;;;;;;30.20;26.80;;;;;;;18.83;100.00;156203.56;5073224;28;21000;-83
2022/08/27 05:40:27;;;;;;;31.53;26.50;;;;;;;18.86;100.00;156210.09;5072902;28;20520;-83
2022/08/27 05:42:54;;;;;;;31.50;26.30;;;;;;;18.87;100.00;156212.72;5074387;28;20434;-83
2022/08/27 05:45:21;;;;;;;30.53;26.17;;;;;;;18.88;100.00;156214.03;5074195;28;20426;-83
2022/08/27 05:47:48;;;;;;;34.60;28.07;;;;;;;18.90;100.00;156220.53;5073276;28;20450;-83
2022/08/27 05:50:14;;;;;;;34.07;27.73;;;;;;;18.88;100.00;156215.28;5072907;28;20533;-83
2022/08/27 05:52:41;;;;;;;30.87;26.10;;;;;;;18.91;100.00;156223.09;5074767;28;20470;-83
2022/08/27 05:55:08;;;;;;;29.73;26.30;;;;;;;18.90;100.00;156220.53;5074215;28;20465;-83
2022/08/27 05:57:36;;;;;;;28.33;25.10;;;;;;;18.87;100.00;156212.72;5072513;28;20469;-83
2022/08/27 06:02:48;;;;;;;31.37;26.50;;;;;;;18.89;100.00;156217.91;5055883;28;20415;-83
2022/08/27 06:05:15;;;;;;;33.20;26.80;;;;;;;18.92;100.00;156225.72;5072729;28;20426;-83
2022/08/27 06:07:42;;;;;;;32.30;28.83;;;;;;;18.95;100.00;156233.56;5072889;28;20460;-83
2022/08/27 06:10:10;;;;;;;32.60;27.70;;;;;;;18.98;100.00;156241.38;5072344;28;20438;-83
2022/08/27 06:12:38;;;;;;;29.97;26.03;;;;;;;19.04;100.00;156256.97;5073736;28;20438;-83
2022/08/27 06:15:05;;;;;;;31.47;27.70;;;;;;;19.08;100.00;156266.13;5072451;28;21095;-83
2022/08/27 06:17:32;;;;;;;29.77;26.57;;;;;;;19.07;100.00;156264.81;5072573;28;20441;-83
2022/08/27 06:19:59;;;;;;;31.73;27.37;;;;;;;19.04;100.00;156255.66;5072261;28;20527;-83
2022/08/27 06:22:26;;;;;;;31.73;28.37;;;;;;;19.05;100.00;156258.28;5074106;28;20444;-83
2022/08/27 06:24:53;;;;;;;32.10;26.03;;;;;;;19.04;100.00;156256.97;5071706;28;20431;-83
2022/08/27 06:27:20;;;;;;;31.10;27.87;;;;;;;18.97;100.00;156238.75;5072560;28;20552;-83
2022/08/27 06:29:48;;;;;;;32.20;28.50;;;;;;;19.00;100.00;156245.28;5073440;28;20507;-83
2022/08/27 06:32:15;;;;;;;36.47;29.90;;;;;;;18.97;100.00;156238.75;5072361;28;20442;-83
2022/08/27 06:34:41;;;;;;;31.23;27.30;;;;;;;19.02;100.00;156251.78;5071891;28;20572;-83
2022/08/27 06:37:08;;;;;;;34.40;26.70;;;;;;;19.08;100.00;156267.44;5072150;28;20545;-83
2022/08/27 06:39:37;;;;;;;33.10;29.60;;;;;;;19.14;100.00;156283.03;5073274;28;20997;-83
2022/08/27 06:42:03;;;;;;;32.77;29.27;;;;;;;19.13;100.00;156279.16;5055145;28;20457;-83
2022/08/27 06:44:32;;;;;;;32.13;27.33;;;;;;;19.08;100.00;156267.44;5055296;28;20434;-83
2022/08/27 06:47:02;;;;;;;32.53;29.10;;;;;;;19.14;100.00;156281.78;5072325;28;20436;-83
2022/08/27 06:49:29;;;;;;;33.70;29.10;;;;;;;19.19;100.00;156296.13;5072955;28;20430;-83
2022/08/27 06:51:56;;;;;;;31.60;28.23;;;;;;;19.24;100.00;156309.13;5071490;28;20509;-83
2022/08/27 06:54:23;;;;;;;32.60;28.60;;;;;;;19.23;100.00;156305.19;5071596;28;20470;-83
2022/08/27 06:56:49;;;;;;;32.20;27.70;;;;;;;19.19;100.00;156296.13;5071625;28;20539;-83
2022/08/27 06:59:18;;;;;;;34.60;28.43;;;;;;;19.22;100.00;156302.63;5071581;28;20446;-83
2022/08/27 07:01:47;;;;;;;31.60;27.27;;;;;;;19.18;100.00;156293.50;5071351;28;20464;-83
2022/08/27 07:04:18;;;;;;;37.57;27.63;;;;;;;19.26;100.00;156313.03;5072908;28;20426;-83
2022/08/27 07:06:45;;;;;;;36.50;29.07;;;;;;;19.20;100.00;156297.38;5073189;28;20465;-83
2022/08/27 07:09:12;;;;;;;34.67;28.67;;;;;;;19.21;100.00;156301.31;5072791;28;20415;-83
2022/08/27 07:11:40;;;;;;;32.37;28.00;;;;;;;19.23;100.00;156306.53;5071100;28;20438;-83
2022/08/27 07:14:07;;;;;;;32.30;28.33;;;;;;;19.26;100.00;156313.03;5071204;28;20433;-83
2022/08/27 07:16:34;;;;;;;34.03;26.77;;;;;;;19.29;100.00;156320.84;5072842;28;20477;-83
2022/08/27 07:19:03;;;;;;;31.33;28.07;;;;;;;19.28;100.00;156319.53;5072568;28;20426;-83
2022/08/27 07:21:31;;;;;;;32.43;27.87;;;;;;;19.33;100.00;156331.25;5087868;28;20473;-83
2022/08/27 07:24:03;;;;;;;30.10;26.80;;;;;;;19.34;100.00;156333.88;5071238;28;20537;-83
2022/08/27 07:26:30;;;;;;;29.97;26.60;;;;;;;19.34;100.00;156335.19;5054397;28;20450;-83
2022/08/27 07:28:57;;;;;;;30.60;27.00;;;;;;;19.42;100.00;156356.09;5072328;28;20513;-83
2022/08/27 07:31:24;;;;;;;32.30;28.83;;;;;;;19.40;100.00;156350.91;5070959;28;20446;-83
2022/08/27 07:33:50;;;;;;;33.20;28.53;;;;;;;19.46;100.00;156363.94;5087886;28;20438;-83
2022/08/27 07:36:17;;;;;;;32.40;27.90;;;;;;;19.43;100.00;156357.41;5071611;28;20472;-83
2022/08/27 07:38:46;;;;;;;34.20;29.17;;;;;;;19.47;100.00;156366.50;5070999;28;20438;-83
2022/08/27 07:41:13;;;;;;;32.00;28.77;;;;;;;19.48;100.00;156369.13;5070523;28;20450;-83
2022/08/27 07:46:29;;;;;;;31.77;28.30;;;;;;;19.47;100.00;156366.50;5056711;28;20552;-83
2022/08/27 07:48:56;;;;;;;29.83;26.70;;;;;;;19.49;100.00;156371.72;5072011;28;20465;-83
2022/08/27 07:51:25;;;;;;;36.53;30.03;;;;;;;19.51;100.00;156378.28;5070419;28;20454;-83
2022/08/27 07:53:53;;;;;;;32.63;29.23;;;;;;;19.49;100.00;156371.72;5104406;28;20448;-83
2022/08/27 07:56:21;;;;;;;30.03;26.37;;;;;;;19.53;100.00;156383.47;5087357;28;20505;-83
2022/08/27 07:58:47;;;;;;;32.83;29.43;;;;;;;19.56;100.00;156391.31;5070527;28;20441;-83
2022/08/27 08:01:14;;;;;;;30.27;27.17;;;;;;;19.53;100.00;156383.47;5069893;28;20460;-83
2022/08/27 08:03:41;;;;;;;31.33;27.70;;;;;;;19.57;100.00;156392.56;5072042;28;20422;-83
2022/08/27 08:06:11;;;;;;;31.77;28.27;;;;;;;19.58;100.00;156395.19;5071856;28;20434;-83
2022/08/27 08:08:39;;;;;;;31.07;27.73;;;;;;;19.54;100.00;156384.78;5071710;28;20436;-83
2022/08/27 08:11:08;;;;;;;33.10;28.27;;;;;;;19.49;100.00;156371.72;5070088;28;21131;-83
2022/08/27 08:13:35;;;;;;;37.57;29.67;;;;;;;19.50;100.00;156374.34;5070488;28;20438;-83
2022/08/27 08:16:03;;;;;;;35.80;29.57;;;;;;;19.52;100.00;156379.53;5070298;28;20470;-83
2022/08/27 08:18:29;;;;;;;31.30;28.10;;;;;;;19.56;100.00;156390.00;5069868;28;20457;-83
2022/08/27 08:21:00;;;;;;;31.70;28.33;;;;;;;19.51;100.00;156378.28;5070093;28;20540;-83
2022/08/27 08:23:27;;;;;;;31.30;28.00;;;;;;;19.43;100.00;156357.41;5071762;28;20422;-83
2022/08/27 08:25:53;;;;;;;31.93;26.77;;;;;;;19.40;100.00;156350.91;5071748;28;20436;-83
2022/08/27 08:28:21;;;;;;;28.37;25.30;;;;;;;19.37;100.00;156341.72;5071660;28;20426;-83
2022/08/27 08:30:48;;;;;;;30.83;26.70;;;;;;;19.38;100.00;156344.34;5070002;28;20442;-83
2022/08/27 08:33:16;;;;;;;30.83;26.93;;;;;;;19.30;100.00;156324.75;5071598;28;20513;-83
2022/08/27 08:35:42;;;;;;;31.07;26.40;;;;;;;19.31;100.00;156327.38;5069874;28;20478;-83
2022/08/27 08:38:09;;;;;;;29.60;26.20;;;;;;;19.32;100.00;156328.69;5053485;28;20445;-83
2022/08/27 08:40:39;;;;;;;35.57;28.63;;;;;;;19.27;100.00;156316.91;5071087;28;21137;-83
2022/08/27 08:43:07;;;;;;;33.57;28.90;;;;;;;19.25;100.00;156310.41;5071497;28;20856;-83
2022/08/27 08:45:38;;;;;;;32.23;28.30;;;;;;;19.24;100.00;156307.84;5070095;28;20854;-83
2022/08/27 08:48:10;;;;;;;33.93;30.23;;;;;;;19.23;100.00;156305.19;5073494;28;20456;-83
2022/08/27 08:50:49;;;;;;;34.27;30.73;;;;;;;19.29;100.00;156322.16;5075002;28;20420;-83
2022/08/27 08:53:20;;;;;;;35.57;31.10;;;;;;;19.28;100.00;156319.53;5074263;28;20477;-82
2022/08/27 08:55:49;;;;;;;37.03;31.67;;;;;;;19.19;100.00;156296.13;5075076;28;20508;-82
2022/08/27 08:58:21;;;;;;;38.87;31.80;;;;;;;19.12;100.00;156277.84;5075326;28;20418;-83
2022/08/27 09:00:59;;;;;;;40.27;31.40;;;;;;;19.13;100.00;156280.47;5073417;28;20486;-82
2022/08/27 09:03:27;;;;;;;35.17;31.33;;;;;;;19.14;100.00;156281.78;5074283;28;20842;-82
2022/08/27 09:05:56;;;;;;;35.40;28.70;;;;;;;19.09;100.00;156270.00;5075147;28;20438;-82
2022/08/27 09:08:26;;;;;;;36.50;29.97;;;;;;;19.16;100.00;156288.28;5102079;28;20481;-82
2022/08/27 09:10:58;;;;;;;35.30;29.43;;;;;;;19.19;100.00;156294.81;5073248;28;20438;-81
2022/08/27 09:13:28;;;;;;;34.40;28.07;;;;;;;19.16;100.00;156288.28;5073763;28;20515;-81
2022/08/27 09:15:58;;;;;;;34.63;29.63;;;;;;;19.15;100.00;156285.66;5073415;28;20963;-81
2022/08/27 09:18:25;;;;;;;34.70;29.17;;;;;;;19.22;100.00;156302.63;5073942;28;20441;-83
2022/08/27 09:21:00;;;;;;;33.20;29.57;;;;;;;19.24;100.00;156309.13;5073137;28;20438;-82
2022/08/27 09:23:33;;;;;;;30.97;25.90;;;;;;;19.24;100.00;156307.84;5073545;28;20917;-82
2022/08/27 09:26:00;;;;;;;29.07;25.90;;;;;;;19.22;100.00;156303.88;5073361;28;20541;-82
2022/08/27 09:31:16;;;;;;;29.50;24.77;;;;;;;19.14;100.00;156281.78;5072892;28;20465;-82
2022/08/27 09:33:43;;;;;;;26.40;23.60;;;;;;;19.21;100.00;156300.00;5073510;28;20907;-82
2022/08/27 09:36:13;;;;;;;26.53;23.10;;;;;;;19.20;100.00;156297.38;5074629;28;20513;-82
2022/08/27 09:38:41;;;;;;;24.67;22.00;;;;;;;19.25;100.00;156311.72;5073267;28;20438;-82
2022/08/27 09:41:13;;;;;;;16.00;14.50;;;;;;;19.24;100.00;156309.13;5072744;28;20549;-82
2022/08/27 09:43:42;;;;;;;14.67;13.13;;;;;;;19.21;100.00;156301.31;5074376;28;20521;-82
2022/08/27 09:46:20;;;;;;;12.27;11.00;;;;;;;19.24;100.00;156309.13;5074415;28;20477;-82
2022/08/27 09:48:47;;;;;;;12.27;11.07;;;;;;;19.21;100.00;156300.00;5074468;28;20421;-82
2022/08/27 09:51:17;;;;;;;17.30;13.97;;;;;;;19.25;100.00;156310.41;5072732;28;20561;-83
2022/08/27 09:53:49;;;;;;;15.93;14.30;;;;;;;19.22;100.00;156302.63;5074398;28;20854;-82
2022/08/27 09:56:24;;;;;;;17.00;15.20;;;;;;;19.25;100.00;156310.41;5072630;28;20524;-82
2022/08/27 09:58:53;;;;;;;17.50;15.73;;;;;;;19.26;100.00;156314.34;5073054;28;20532;-82
2022/08/27 10:01:24;;;;;;;18.80;16.90;;;;;;;19.25;100.00;156311.72;5073588;28;20457;-82
2022/08/27 10:03:51;;;;;;;19.90;17.90;;;;;;;19.30;100.00;156324.75;5074465;28;20436;-82
2022/08/27 10:06:27;;;;;;;18.97;17.00;;;;;;;19.36;100.00;156340.41;5072569;28;20491;-82
2022/08/27 10:08:55;;;;;;;17.87;16.00;;;;;;;19.26;100.00;156314.34;5074154;28;20426;-82
2022/08/27 10:11:25;;;;;;;16.97;15.37;;;;;;;19.31;100.00;156327.38;5072536;28;20441;-83
2022/08/27 10:13:56;;;;;;;15.67;14.10;;;;;;;19.37;100.00;156343.06;5072894;28;20925;-83
2022/08/27 10:16:46;;;;;;;16.67;14.97;;;;;;;19.35;100.00;156337.78;5073695;28;20585;-83
2022/08/27 10:19:21;;;;;;;15.70;14.10;;;;;;;19.43;100.00;156358.69;5072525;28;20499;-83
2022/08/27 10:21:55;;;;;;;16.50;14.80;;;;;;;19.44;100.00;156361.31;5072207;28;20449;-83
2022/08/27 10:24:29;;;;;;;14.47;13.00;;;;;;;19.52;100.00;156380.84;5072456;28;20515;-83
2022/08/27 10:27:04;;;;;;;15.17;13.67;;;;;;;19.54;100.00;156384.78;5072161;28;20456;-82
2022/08/27 10:29:38;;;;;;;15.23;13.73;;;;;;;19.57;100.00;156392.56;5072497;28;20433;-83
2022/08/27 10:32:14;;;;;;;15.87;14.17;;;;;;;19.61;100.00;156404.34;5073001;28;20430;-83
2022/08/27 10:34:45;;;;;;;16.83;14.90;;;;;;;19.63;100.00;156409.53;5073406;28;20794;-83
2022/08/27 10:37:19;;;;;;;17.03;15.43;;;;;;;19.62;100.00;156405.66;5071815;28;20546;-83
2022/08/27 10:39:56;;;;;;;17.17;15.47;;;;;;;19.61;100.00;156404.34;5072546;28;20529;-83
2022/08/27 10:42:27;;;;;;;17.47;15.73;;;;;;;19.59;100.00;156399.09;5071733;28;20446;-83
2022/08/27 10:45:04;;;;;;;18.20;16.40;;;;;;;19.63;100.00;156408.22;5072079;28;20487;-83
2022/08/27 10:47:43;;;;;;;17.53;15.73;;;;;;;19.57;100.00;156392.56;5088954;28;20991;-83
2022/08/27 10:50:16;;;;;;;19.17;17.30;;;;;;;19.56;100.00;156391.31;5073397;28;20526;-83
2022/08/27 10:52:47;;;;;;;19.43;17.33;;;;;;;19.56;100.00;156390.00;5071695;28;20548;-83
2022/08/27 10:55:20;;;;;;;19.57;17.67;;;;;;;19.53;100.00;156383.47;5073112;28;20411;-83
2022/08/27 10:58:15;;;;;;;20.23;18.17;;;;;;;19.50;100.00;156375.66;5072846;28;20505;-83
2022/08/27 11:00:47;;;;;;;19.87;17.80;;;;;;;19.51;100.00;156376.97;5072677;28;20886;-83
2022/08/27 11:03:27;;;;;;;21.43;17.90;;;;;;;19.49;100.00;156373.03;5071426;28;20526;-83
2022/08/27 11:05:56;;;;;;;19.70;17.50;;;;;;;19.56;100.00;156390.00;5072890;28;20913;-83
2022/08/27 11:08:26;;;;;;;20.77;18.57;;;;;;;19.63;100.00;156408.22;5071268;28;20989;-83
2022/08/27 11:10:57;;;;;;;21.07;19.00;;;;;;;19.54;100.00;156384.78;5071545;28;20442;-83
2022/08/27 11:13:31;;;;;;;19.60;17.60;;;;;;;19.59;100.00;156399.09;5071302;28;20799;-83
2022/08/27 11:15:58;;;;;;;21.70;19.57;;;;;;;19.57;100.00;156393.88;5071466;28;20808;-83
2022/08/27 11:18:34;;;;;;;19.83;17.73;;;;;;;19.64;100.00;156412.16;5072539;28;20488;-83
2022/08/27 11:21:05;;;;;;;23.37;20.20;;;;;;;19.54;100.00;156384.78;5070900;28;20448;-83